sensor_id;sensor_type;location;lat;lon;timestamp;P1;durP1;ratioP1;P2;durP2;ratioP2
57067;SDS011;43391;47.448;18.904;2022-10-31T00:01:58;109.82;;;45.72;;
57067;SDS011;43391;47.448;18.904;2022-10-31T00:04:24;97.90;;;48.13;;
57067;SDS011;43391;47.448;18.904;2022-10-31T00:06:49;107.05;;;48.53;;
57067;SDS011;43391;47.448;18.904;2022-10-31T00:09:14;100.95;;;48.00;;
57067;SDS011;43391;47.448;18.904;2022-10-31T00:11:40;94.93;;;48.38;;
57067;SDS011;43391;47.448;18.904;2022-10-31T00:14:05;96.82;;;45.85;;
57067;SDS011;43391;47.448;18.904;2022-10-31T00:16:31;96.05;;;47.80;;
57067;SDS011;43391;47.448;18.904;2022-10-31T00:19:00;98.70;;;48.15;;
57067;SDS011;43391;47.448;18.904;2022-10-31T00:21:29;124.22;;;46.90;;
57067;SDS011;43391;47.448;18.904;2022-10-31T00:23:55;91.28;;;46.47;;
57067;SDS011;43391;47.448;18.904;2022-10-31T00:26:21;92.28;;;43.40;;
57067;SDS011;43391;47.448;18.904;2022-10-31T00:28:46;73.15;;;40.83;;
57067;SDS011;43391;47.448;18.904;2022-10-31T00:31:12;58.03;;;36.25;;
57067;SDS011;43391;47.448;18.904;2022-10-31T00:33:38;60.80;;;35.75;;
57067;SDS011;43391;47.448;18.904;2022-10-31T00:36:05;59.05;;;34.40;;
57067;SDS011;43391;47.448;18.904;2022-10-31T00:38:31;58.80;;;32.45;;
57067;SDS011;43391;47.448;18.904;2022-10-31T00:40:57;46.30;;;29.45;;
57067;SDS011;43391;47.448;18.904;2022-10-31T00:43:22;49.05;;;29.83;;
57067;SDS011;43391;47.448;18.904;2022-10-31T00:45:48;43.13;;;28.75;;
57067;SDS011;43391;47.448;18.904;2022-10-31T00:48:13;52.40;;;30.10;;
57067;SDS011;43391;47.448;18.904;2022-10-31T00:50:39;44.10;;;27.67;;
57067;SDS011;43391;47.448;18.904;2022-10-31T00:53:04;46.10;;;30.05;;
57067;SDS011;43391;47.448;18.904;2022-10-31T00:55:30;48.13;;;29.92;;
57067;SDS011;43391;47.448;18.904;2022-10-31T00:57:55;50.45;;;30.88;;
57067;SDS011;43391;47.448;18.904;2022-10-31T01:00:20;51.05;;;31.13;;
57067;SDS011;43391;47.448;18.904;2022-10-31T01:02:46;43.85;;;28.83;;
57067;SDS011;43391;47.448;18.904;2022-10-31T01:05:11;43.47;;;27.92;;
57067;SDS011;43391;47.448;18.904;2022-10-31T01:07:37;48.05;;;29.88;;
57067;SDS011;43391;47.448;18.904;2022-10-31T01:10:04;51.33;;;29.70;;
57067;SDS011;43391;47.448;18.904;2022-10-31T01:12:35;45.30;;;30.77;;
57067;SDS011;43391;47.448;18.904;2022-10-31T01:15:04;49.97;;;32.83;;
57067;SDS011;43391;47.448;18.904;2022-10-31T01:17:30;47.92;;;30.70;;
57067;SDS011;43391;47.448;18.904;2022-10-31T01:19:56;50.75;;;31.25;;
57067;SDS011;43391;47.448;18.904;2022-10-31T01:22:21;56.78;;;32.33;;
57067;SDS011;43391;47.448;18.904;2022-10-31T01:24:46;62.33;;;34.17;;
57067;SDS011;43391;47.448;18.904;2022-10-31T01:27:12;58.08;;;30.88;;
57067;SDS011;43391;47.448;18.904;2022-10-31T01:29:37;57.58;;;32.67;;
57067;SDS011;43391;47.448;18.904;2022-10-31T01:32:02;59.00;;;32.58;;
57067;SDS011;43391;47.448;18.904;2022-10-31T01:34:28;55.97;;;32.72;;
57067;SDS011;43391;47.448;18.904;2022-10-31T01:36:53;62.38;;;33.78;;
57067;SDS011;43391;47.448;18.904;2022-10-31T01:39:19;57.78;;;33.95;;
57067;SDS011;43391;47.448;18.904;2022-10-31T01:41:45;66.50;;;36.05;;
57067;SDS011;43391;47.448;18.904;2022-10-31T01:49:28;71.25;;;37.30;;
57067;SDS011;43391;47.448;18.904;2022-10-31T01:52:24;66.25;;;35.03;;
57067;SDS011;43391;47.448;18.904;2022-10-31T01:54:53;71.47;;;38.00;;
57067;SDS011;43391;47.448;18.904;2022-10-31T01:57:26;71.72;;;37.35;;
57067;SDS011;43391;47.448;18.904;2022-10-31T01:59:55;69.93;;;37.97;;
57067;SDS011;43391;47.448;18.904;2022-10-31T02:02:24;72.10;;;37.67;;
57067;SDS011;43391;47.448;18.904;2022-10-31T02:04:52;80.50;;;39.70;;
57067;SDS011;43391;47.448;18.904;2022-10-31T02:07:20;82.55;;;38.88;;
57067;SDS011;43391;47.448;18.904;2022-10-31T02:09:52;77.43;;;37.58;;
57067;SDS011;43391;47.448;18.904;2022-10-31T02:12:18;66.28;;;36.92;;
57067;SDS011;43391;47.448;18.904;2022-10-31T02:14:45;67.68;;;35.35;;
57067;SDS011;43391;47.448;18.904;2022-10-31T02:17:11;79.00;;;34.38;;
57067;SDS011;43391;47.448;18.904;2022-10-31T02:22:05;67.32;;;36.47;;
57067;SDS011;43391;47.448;18.904;2022-10-31T02:27:40;66.72;;;36.33;;
57067;SDS011;43391;47.448;18.904;2022-10-31T02:30:14;72.72;;;37.33;;
57067;SDS011;43391;47.448;18.904;2022-10-31T02:35:24;58.67;;;32.22;;
57067;SDS011;43391;47.448;18.904;2022-10-31T02:40:59;50.15;;;29.30;;
57067;SDS011;43391;47.448;18.904;2022-10-31T02:43:43;58.20;;;31.38;;
57067;SDS011;43391;47.448;18.904;2022-10-31T02:49:26;59.17;;;29.23;;
57067;SDS011;43391;47.448;18.904;2022-10-31T02:51:57;52.80;;;28.13;;
57067;SDS011;43391;47.448;18.904;2022-10-31T02:54:24;50.13;;;28.63;;
57067;SDS011;43391;47.448;18.904;2022-10-31T02:56:53;47.70;;;26.38;;
57067;SDS011;43391;47.448;18.904;2022-10-31T02:59:22;49.53;;;28.02;;
57067;SDS011;43391;47.448;18.904;2022-10-31T03:04:36;64.30;;;28.55;;
57067;SDS011;43391;47.448;18.904;2022-10-31T03:07:18;52.88;;;27.15;;
57067;SDS011;43391;47.448;18.904;2022-10-31T03:15:32;47.42;;;27.25;;
57067;SDS011;43391;47.448;18.904;2022-10-31T03:18:04;44.00;;;25.20;;
57067;SDS011;43391;47.448;18.904;2022-10-31T03:20:37;45.97;;;25.17;;
57067;SDS011;43391;47.448;18.904;2022-10-31T03:23:06;48.70;;;25.35;;
57067;SDS011;43391;47.448;18.904;2022-10-31T03:25:36;43.72;;;24.33;;
57067;SDS011;43391;47.448;18.904;2022-10-31T03:28:02;52.47;;;25.58;;
57067;SDS011;43391;47.448;18.904;2022-10-31T03:30:30;43.55;;;24.00;;
57067;SDS011;43391;47.448;18.904;2022-10-31T03:32:58;48.13;;;24.40;;
57067;SDS011;43391;47.448;18.904;2022-10-31T03:35:28;39.80;;;24.30;;
57067;SDS011;43391;47.448;18.904;2022-10-31T03:37:54;37.08;;;23.52;;
57067;SDS011;43391;47.448;18.904;2022-10-31T03:40:20;46.30;;;24.25;;
57067;SDS011;43391;47.448;18.904;2022-10-31T03:42:55;57.38;;;26.17;;
57067;SDS011;43391;47.448;18.904;2022-10-31T03:45:29;44.65;;;25.48;;
57067;SDS011;43391;47.448;18.904;2022-10-31T03:47:55;48.45;;;26.25;;
57067;SDS011;43391;47.448;18.904;2022-10-31T03:50:23;51.28;;;27.48;;
57067;SDS011;43391;47.448;18.904;2022-10-31T03:53:36;45.00;;;26.30;;
57067;SDS011;43391;47.448;18.904;2022-10-31T03:55:49;49.97;;;27.00;;
57067;SDS011;43391;47.448;18.904;2022-10-31T03:58:21;48.90;;;25.73;;
57067;SDS011;43391;47.448;18.904;2022-10-31T04:00:51;50.35;;;27.10;;
57067;SDS011;43391;47.448;18.904;2022-10-31T04:05:49;48.85;;;26.35;;
57067;SDS011;43391;47.448;18.904;2022-10-31T04:08:18;50.35;;;27.63;;
57067;SDS011;43391;47.448;18.904;2022-10-31T04:10:48;48.78;;;26.23;;
57067;SDS011;43391;47.448;18.904;2022-10-31T04:13:16;42.38;;;25.40;;
57067;SDS011;43391;47.448;18.904;2022-10-31T04:15:51;38.83;;;22.83;;
57067;SDS011;43391;47.448;18.904;2022-10-31T04:18:19;44.38;;;24.73;;
57067;SDS011;43391;47.448;18.904;2022-10-31T04:20:44;39.40;;;22.88;;
57067;SDS011;43391;47.448;18.904;2022-10-31T04:25:51;39.72;;;23.40;;
57067;SDS011;43391;47.448;18.904;2022-10-31T04:28:16;38.90;;;22.85;;
57067;SDS011;43391;47.448;18.904;2022-10-31T04:30:42;41.92;;;22.83;;
57067;SDS011;43391;47.448;18.904;2022-10-31T04:33:07;41.20;;;23.58;;
57067;SDS011;43391;47.448;18.904;2022-10-31T04:35:32;39.35;;;23.17;;
57067;SDS011;43391;47.448;18.904;2022-10-31T04:37:58;34.80;;;21.27;;
57067;SDS011;43391;47.448;18.904;2022-10-31T04:40:23;36.80;;;22.75;;
57067;SDS011;43391;47.448;18.904;2022-10-31T04:42:48;34.22;;;21.42;;
57067;SDS011;43391;47.448;18.904;2022-10-31T04:45:14;34.72;;;20.42;;
57067;SDS011;43391;47.448;18.904;2022-10-31T04:47:39;36.97;;;22.42;;
57067;SDS011;43391;47.448;18.904;2022-10-31T04:50:05;36.00;;;21.90;;
57067;SDS011;43391;47.448;18.904;2022-10-31T04:52:30;38.40;;;21.95;;
57067;SDS011;43391;47.448;18.904;2022-10-31T04:54:55;37.05;;;22.85;;
57067;SDS011;43391;47.448;18.904;2022-10-31T04:57:21;33.63;;;20.60;;
57067;SDS011;43391;47.448;18.904;2022-10-31T04:59:46;37.80;;;21.45;;
57067;SDS011;43391;47.448;18.904;2022-10-31T05:02:12;34.90;;;23.15;;
57067;SDS011;43391;47.448;18.904;2022-10-31T05:04:37;37.70;;;23.10;;
57067;SDS011;43391;47.448;18.904;2022-10-31T05:07:02;38.85;;;22.95;;
57067;SDS011;43391;47.448;18.904;2022-10-31T05:09:28;38.92;;;21.45;;
57067;SDS011;43391;47.448;18.904;2022-10-31T05:11:53;50.47;;;25.42;;
57067;SDS011;43391;47.448;18.904;2022-10-31T05:14:18;46.92;;;33.50;;
57067;SDS011;43391;47.448;18.904;2022-10-31T05:16:43;41.95;;;27.40;;
57067;SDS011;43391;47.448;18.904;2022-10-31T05:19:09;35.47;;;22.83;;
57067;SDS011;43391;47.448;18.904;2022-10-31T05:21:34;39.65;;;23.13;;
57067;SDS011;43391;47.448;18.904;2022-10-31T05:23:59;40.00;;;24.10;;
57067;SDS011;43391;47.448;18.904;2022-10-31T05:26:25;40.50;;;23.20;;
57067;SDS011;43391;47.448;18.904;2022-10-31T05:28:50;38.63;;;22.98;;
57067;SDS011;43391;47.448;18.904;2022-10-31T05:31:16;40.80;;;24.45;;
57067;SDS011;43391;47.448;18.904;2022-10-31T05:33:41;43.55;;;24.70;;
57067;SDS011;43391;47.448;18.904;2022-10-31T05:36:07;44.15;;;25.48;;
57067;SDS011;43391;47.448;18.904;2022-10-31T05:38:32;41.83;;;25.35;;
57067;SDS011;43391;47.448;18.904;2022-10-31T05:40:57;48.42;;;28.10;;
57067;SDS011;43391;47.448;18.904;2022-10-31T05:43:25;52.95;;;27.17;;
57067;SDS011;43391;47.448;18.904;2022-10-31T05:45:53;46.20;;;27.40;;
57067;SDS011;43391;47.448;18.904;2022-10-31T05:48:19;49.67;;;27.80;;
57067;SDS011;43391;47.448;18.904;2022-10-31T05:50:44;54.38;;;28.88;;
57067;SDS011;43391;47.448;18.904;2022-10-31T05:53:12;54.33;;;29.60;;
57067;SDS011;43391;47.448;18.904;2022-10-31T05:55:38;51.20;;;28.15;;
57067;SDS011;43391;47.448;18.904;2022-10-31T05:58:05;50.78;;;27.48;;
57067;SDS011;43391;47.448;18.904;2022-10-31T06:00:31;53.63;;;29.23;;
57067;SDS011;43391;47.448;18.904;2022-10-31T06:02:57;60.53;;;30.13;;
57067;SDS011;43391;47.448;18.904;2022-10-31T06:05:27;61.50;;;29.05;;
57067;SDS011;43391;47.448;18.904;2022-10-31T06:07:53;57.92;;;30.73;;
57067;SDS011;43391;47.448;18.904;2022-10-31T06:10:18;70.88;;;30.70;;
57067;SDS011;43391;47.448;18.904;2022-10-31T06:12:45;67.40;;;31.10;;
57067;SDS011;43391;47.448;18.904;2022-10-31T06:15:11;59.00;;;31.77;;
57067;SDS011;43391;47.448;18.904;2022-10-31T06:17:36;63.63;;;31.23;;
57067;SDS011;43391;47.448;18.904;2022-10-31T06:20:02;62.17;;;33.20;;
57067;SDS011;43391;47.448;18.904;2022-10-31T06:22:29;66.82;;;34.90;;
57067;SDS011;43391;47.448;18.904;2022-10-31T06:24:54;67.82;;;32.22;;
57067;SDS011;43391;47.448;18.904;2022-10-31T06:27:20;59.55;;;31.73;;
57067;SDS011;43391;47.448;18.904;2022-10-31T06:29:45;58.75;;;31.10;;
57067;SDS011;43391;47.448;18.904;2022-10-31T06:32:11;56.78;;;30.67;;
57067;SDS011;43391;47.448;18.904;2022-10-31T06:34:41;61.25;;;31.55;;
57067;SDS011;43391;47.448;18.904;2022-10-31T06:37:07;66.00;;;33.72;;
57067;SDS011;43391;47.448;18.904;2022-10-31T06:39:33;73.80;;;33.92;;
57067;SDS011;43391;47.448;18.904;2022-10-31T06:41:59;61.25;;;31.98;;
57067;SDS011;43391;47.448;18.904;2022-10-31T06:44:24;68.45;;;34.30;;
57067;SDS011;43391;47.448;18.904;2022-10-31T06:46:50;61.63;;;31.90;;
57067;SDS011;43391;47.448;18.904;2022-10-31T06:49:15;62.25;;;32.70;;
57067;SDS011;43391;47.448;18.904;2022-10-31T06:51:41;68.60;;;34.40;;
57067;SDS011;43391;47.448;18.904;2022-10-31T06:54:06;66.78;;;33.70;;
57067;SDS011;43391;47.448;18.904;2022-10-31T06:56:32;54.72;;;29.67;;
57067;SDS011;43391;47.448;18.904;2022-10-31T06:58:57;59.95;;;30.33;;
57067;SDS011;43391;47.448;18.904;2022-10-31T07:01:23;55.15;;;30.55;;
57067;SDS011;43391;47.448;18.904;2022-10-31T07:03:48;58.50;;;32.22;;
57067;SDS011;43391;47.448;18.904;2022-10-31T07:06:13;68.18;;;33.47;;
57067;SDS011;43391;47.448;18.904;2022-10-31T07:08:39;64.53;;;32.20;;
57067;SDS011;43391;47.448;18.904;2022-10-31T07:11:04;65.43;;;33.42;;
57067;SDS011;43391;47.448;18.904;2022-10-31T07:13:30;57.03;;;31.50;;
57067;SDS011;43391;47.448;18.904;2022-10-31T07:15:58;56.67;;;29.35;;
57067;SDS011;43391;47.448;18.904;2022-10-31T07:18:25;54.38;;;29.20;;
57067;SDS011;43391;47.448;18.904;2022-10-31T07:20:51;53.15;;;30.30;;
57067;SDS011;43391;47.448;18.904;2022-10-31T07:23:17;55.95;;;29.27;;
57067;SDS011;43391;47.448;18.904;2022-10-31T07:25:42;52.38;;;29.77;;
57067;SDS011;43391;47.448;18.904;2022-10-31T07:28:08;55.67;;;29.95;;
57067;SDS011;43391;47.448;18.904;2022-10-31T07:30:34;66.35;;;31.52;;
57067;SDS011;43391;47.448;18.904;2022-10-31T07:32:59;62.92;;;33.03;;
57067;SDS011;43391;47.448;18.904;2022-10-31T07:35:28;65.40;;;32.40;;
57067;SDS011;43391;47.448;18.904;2022-10-31T07:37:54;62.85;;;32.50;;
57067;SDS011;43391;47.448;18.904;2022-10-31T07:40:20;65.57;;;31.15;;
57067;SDS011;43391;47.448;18.904;2022-10-31T07:42:47;60.92;;;30.85;;
57067;SDS011;43391;47.448;18.904;2022-10-31T07:45:15;59.92;;;31.25;;
57067;SDS011;43391;47.448;18.904;2022-10-31T07:50:09;60.30;;;32.50;;
57067;SDS011;43391;47.448;18.904;2022-10-31T07:52:36;63.22;;;31.13;;
57067;SDS011;43391;47.448;18.904;2022-10-31T07:55:02;62.35;;;30.52;;
57067;SDS011;43391;47.448;18.904;2022-10-31T07:57:28;63.05;;;31.08;;
57067;SDS011;43391;47.448;18.904;2022-10-31T07:59:54;66.15;;;35.58;;
57067;SDS011;43391;47.448;18.904;2022-10-31T08:02:19;55.75;;;31.55;;
57067;SDS011;43391;47.448;18.904;2022-10-31T08:04:45;61.38;;;31.38;;
57067;SDS011;43391;47.448;18.904;2022-10-31T08:07:10;61.08;;;32.50;;
57067;SDS011;43391;47.448;18.904;2022-10-31T08:09:35;60.00;;;32.28;;
57067;SDS011;43391;47.448;18.904;2022-10-31T08:12:01;58.70;;;30.48;;
57067;SDS011;43391;47.448;18.904;2022-10-31T08:14:26;55.08;;;29.38;;
57067;SDS011;43391;47.448;18.904;2022-10-31T08:16:52;58.75;;;31.75;;
57067;SDS011;43391;47.448;18.904;2022-10-31T08:19:20;60.78;;;31.13;;
57067;SDS011;43391;47.448;18.904;2022-10-31T08:21:46;53.78;;;30.20;;
57067;SDS011;43391;47.448;18.904;2022-10-31T08:24:11;54.10;;;29.40;;
57067;SDS011;43391;47.448;18.904;2022-10-31T08:26:36;50.75;;;29.90;;
57067;SDS011;43391;47.448;18.904;2022-10-31T08:29:02;55.72;;;30.35;;
57067;SDS011;43391;47.448;18.904;2022-10-31T08:31:27;56.40;;;30.65;;
57067;SDS011;43391;47.448;18.904;2022-10-31T08:33:53;58.22;;;31.30;;
57067;SDS011;43391;47.448;18.904;2022-10-31T08:36:19;59.58;;;31.40;;
57067;SDS011;43391;47.448;18.904;2022-10-31T08:38:48;63.05;;;31.77;;
57067;SDS011;43391;47.448;18.904;2022-10-31T08:41:14;54.95;;;29.10;;
57067;SDS011;43391;47.448;18.904;2022-10-31T08:43:39;55.45;;;29.42;;
57067;SDS011;43391;47.448;18.904;2022-10-31T08:46:05;61.03;;;30.90;;
57067;SDS011;43391;47.448;18.904;2022-10-31T08:48:30;60.08;;;30.92;;
57067;SDS011;43391;47.448;18.904;2022-10-31T08:50:57;63.67;;;31.63;;
57067;SDS011;43391;47.448;18.904;2022-10-31T08:53:23;59.78;;;29.95;;
57067;SDS011;43391;47.448;18.904;2022-10-31T08:55:49;58.25;;;30.42;;
57067;SDS011;43391;47.448;18.904;2022-10-31T08:58:15;61.53;;;32.63;;
57067;SDS011;43391;47.448;18.904;2022-10-31T09:00:42;65.68;;;32.67;;
57067;SDS011;43391;47.448;18.904;2022-10-31T09:03:12;60.58;;;31.48;;
57067;SDS011;43391;47.448;18.904;2022-10-31T09:05:40;64.68;;;32.88;;
57067;SDS011;43391;47.448;18.904;2022-10-31T09:08:06;56.97;;;30.40;;
57067;SDS011;43391;47.448;18.904;2022-10-31T09:10:33;62.60;;;31.75;;
57067;SDS011;43391;47.448;18.904;2022-10-31T09:13:00;68.97;;;32.78;;
57067;SDS011;43391;47.448;18.904;2022-10-31T09:15:31;61.60;;;32.67;;
57067;SDS011;43391;47.448;18.904;2022-10-31T09:17:57;64.68;;;32.00;;
57067;SDS011;43391;47.448;18.904;2022-10-31T09:20:22;59.63;;;31.77;;
57067;SDS011;43391;47.448;18.904;2022-10-31T09:22:47;61.08;;;30.80;;
57067;SDS011;43391;47.448;18.904;2022-10-31T09:25:20;56.00;;;29.75;;
57067;SDS011;43391;47.448;18.904;2022-10-31T09:27:45;55.20;;;30.25;;
57067;SDS011;43391;47.448;18.904;2022-10-31T09:30:10;59.78;;;30.33;;
57067;SDS011;43391;47.448;18.904;2022-10-31T09:32:36;51.25;;;28.10;;
57067;SDS011;43391;47.448;18.904;2022-10-31T09:35:01;55.30;;;29.10;;
57067;SDS011;43391;47.448;18.904;2022-10-31T09:37:27;55.22;;;28.35;;
57067;SDS011;43391;47.448;18.904;2022-10-31T09:39:52;58.85;;;29.45;;
57067;SDS011;43391;47.448;18.904;2022-10-31T09:45:07;55.83;;;28.65;;
57067;SDS011;43391;47.448;18.904;2022-10-31T09:50:42;49.42;;;27.77;;
57067;SDS011;43391;47.448;18.904;2022-10-31T09:55:49;57.40;;;31.50;;
57067;SDS011;43391;47.448;18.904;2022-10-31T09:58:18;57.45;;;30.65;;
57067;SDS011;43391;47.448;18.904;2022-10-31T10:00:56;57.33;;;29.70;;
57067;SDS011;43391;47.448;18.904;2022-10-31T10:03:28;62.05;;;31.75;;
57067;SDS011;43391;47.448;18.904;2022-10-31T10:08:43;52.65;;;29.88;;
57067;SDS011;43391;47.448;18.904;2022-10-31T10:13:57;59.17;;;30.27;;
57067;SDS011;43391;47.448;18.904;2022-10-31T10:19:29;54.10;;;27.67;;
57067;SDS011;43391;47.448;18.904;2022-10-31T10:29:50;50.33;;;27.33;;
57067;SDS011;43391;47.448;18.904;2022-10-31T10:32:56;51.45;;;28.50;;
57067;SDS011;43391;47.448;18.904;2022-10-31T10:35:25;51.08;;;27.75;;
57067;SDS011;43391;47.448;18.904;2022-10-31T10:37:57;53.45;;;30.05;;
57067;SDS011;43391;47.448;18.904;2022-10-31T10:40:34;54.33;;;29.73;;
57067;SDS011;43391;47.448;18.904;2022-10-31T10:48:43;42.15;;;24.95;;
57067;SDS011;43391;47.448;18.904;2022-10-31T10:51:31;36.75;;;23.05;;
57067;SDS011;43391;47.448;18.904;2022-10-31T10:54:20;45.15;;;25.52;;
57067;SDS011;43391;47.448;18.904;2022-10-31T10:59:32;44.63;;;27.52;;
57067;SDS011;43391;47.448;18.904;2022-10-31T11:01:57;46.10;;;27.15;;
57067;SDS011;43391;47.448;18.904;2022-10-31T11:07:07;46.30;;;27.33;;
57067;SDS011;43391;47.448;18.904;2022-10-31T11:09:34;45.85;;;26.80;;
57067;SDS011;43391;47.448;18.904;2022-10-31T11:12:10;48.55;;;28.73;;
57067;SDS011;43391;47.448;18.904;2022-10-31T11:14:49;45.08;;;28.27;;
57067;SDS011;43391;47.448;18.904;2022-10-31T11:17:31;47.70;;;28.70;;
57067;SDS011;43391;47.448;18.904;2022-10-31T11:20:02;45.38;;;28.00;;
57067;SDS011;43391;47.448;18.904;2022-10-31T11:22:47;50.10;;;29.52;;
57067;SDS011;43391;47.448;18.904;2022-10-31T11:27:44;43.83;;;26.52;;
57067;SDS011;43391;47.448;18.904;2022-10-31T11:30:23;47.75;;;28.70;;
57067;SDS011;43391;47.448;18.904;2022-10-31T11:32:49;45.80;;;27.33;;
57067;SDS011;43391;47.448;18.904;2022-10-31T11:35:19;43.85;;;27.42;;
57067;SDS011;43391;47.448;18.904;2022-10-31T11:37:47;43.17;;;26.65;;
57067;SDS011;43391;47.448;18.904;2022-10-31T11:40:19;43.95;;;26.42;;
57067;SDS011;43391;47.448;18.904;2022-10-31T11:42:47;40.25;;;26.10;;
57067;SDS011;43391;47.448;18.904;2022-10-31T11:48:12;39.30;;;24.35;;
57067;SDS011;43391;47.448;18.904;2022-10-31T11:50:41;44.30;;;25.40;;
57067;SDS011;43391;47.448;18.904;2022-10-31T11:53:12;43.03;;;26.38;;
57067;SDS011;43391;47.448;18.904;2022-10-31T11:55:42;38.58;;;25.40;;
57067;SDS011;43391;47.448;18.904;2022-10-31T11:58:24;34.72;;;24.05;;
57067;SDS011;43391;47.448;18.904;2022-10-31T12:00:52;41.60;;;25.13;;
57067;SDS011;43391;47.448;18.904;2022-10-31T12:05:48;40.67;;;26.70;;
57067;SDS011;43391;47.448;18.904;2022-10-31T12:15:57;40.45;;;26.25;;
57067;SDS011;43391;47.448;18.904;2022-10-31T12:18:36;41.25;;;25.95;;
57067;SDS011;43391;47.448;18.904;2022-10-31T12:21:33;43.83;;;25.92;;
57067;SDS011;43391;47.448;18.904;2022-10-31T12:29:41;42.78;;;27.40;;
57067;SDS011;43391;47.448;18.904;2022-10-31T12:34:56;40.72;;;25.02;;
57067;SDS011;43391;47.448;18.904;2022-10-31T12:45:36;30.92;;;21.33;;
57067;SDS011;43391;47.448;18.904;2022-10-31T12:50:58;32.35;;;21.73;;
57067;SDS011;43391;47.448;18.904;2022-10-31T12:58:46;29.33;;;21.05;;
57067;SDS011;43391;47.448;18.904;2022-10-31T13:01:21;34.17;;;23.23;;
57067;SDS011;43391;47.448;18.904;2022-10-31T13:04:21;32.97;;;22.73;;
57067;SDS011;43391;47.448;18.904;2022-10-31T13:06:58;33.70;;;23.55;;
57067;SDS011;43391;47.448;18.904;2022-10-31T13:09:31;38.08;;;23.20;;
57067;SDS011;43391;47.448;18.904;2022-10-31T13:12:02;37.67;;;23.05;;
57067;SDS011;43391;47.448;18.904;2022-10-31T13:14:35;35.58;;;23.10;;
57067;SDS011;43391;47.448;18.904;2022-10-31T13:17:28;33.00;;;22.45;;
57067;SDS011;43391;47.448;18.904;2022-10-31T13:20:41;32.70;;;23.55;;
57067;SDS011;43391;47.448;18.904;2022-10-31T13:25:49;30.95;;;21.05;;
57067;SDS011;43391;47.448;18.904;2022-10-31T13:30:52;35.83;;;21.90;;
57067;SDS011;43391;47.448;18.904;2022-10-31T13:33:20;34.35;;;22.42;;
57067;SDS011;43391;47.448;18.904;2022-10-31T13:38:36;37.75;;;21.38;;
57067;SDS011;43391;47.448;18.904;2022-10-31T13:44:21;37.47;;;24.98;;
57067;SDS011;43391;47.448;18.904;2022-10-31T13:46:49;38.35;;;25.98;;
57067;SDS011;43391;47.448;18.904;2022-10-31T13:50:02;45.30;;;26.30;;
57067;SDS011;43391;47.448;18.904;2022-10-31T13:52:25;36.35;;;24.10;;
57067;SDS011;43391;47.448;18.904;2022-10-31T13:54:51;36.10;;;24.27;;
57067;SDS011;43391;47.448;18.904;2022-10-31T14:00:30;38.70;;;24.17;;
57067;SDS011;43391;47.448;18.904;2022-10-31T14:02:51;35.83;;;25.13;;
57067;SDS011;43391;47.448;18.904;2022-10-31T14:05:25;35.47;;;23.67;;
57067;SDS011;43391;47.448;18.904;2022-10-31T14:07:52;38.65;;;25.65;;
57067;SDS011;43391;47.448;18.904;2022-10-31T14:12:49;35.08;;;24.13;;
57067;SDS011;43391;47.448;18.904;2022-10-31T14:15:22;35.88;;;24.88;;
57067;SDS011;43391;47.448;18.904;2022-10-31T14:18:00;37.65;;;23.40;;
57067;SDS011;43391;47.448;18.904;2022-10-31T14:20:32;38.30;;;24.23;;
57067;SDS011;43391;47.448;18.904;2022-10-31T14:25:37;36.28;;;24.83;;
57067;SDS011;43391;47.448;18.904;2022-10-31T14:28:17;40.40;;;26.13;;
57067;SDS011;43391;47.448;18.904;2022-10-31T14:30:56;42.67;;;29.05;;
57067;SDS011;43391;47.448;18.904;2022-10-31T14:33:23;41.67;;;30.75;;
57067;SDS011;43391;47.448;18.904;2022-10-31T14:38:30;45.17;;;28.35;;
57067;SDS011;43391;47.448;18.904;2022-10-31T14:49:39;46.53;;;28.10;;
57067;SDS011;43391;47.448;18.904;2022-10-31T14:52:12;41.13;;;26.88;;
57067;SDS011;43391;47.448;18.904;2022-10-31T14:54:43;46.58;;;28.17;;
57067;SDS011;43391;47.448;18.904;2022-10-31T14:57:16;37.92;;;26.23;;
57067;SDS011;43391;47.448;18.904;2022-10-31T14:59:48;43.10;;;26.80;;
57067;SDS011;43391;47.448;18.904;2022-10-31T15:02:28;46.25;;;27.45;;
57067;SDS011;43391;47.448;18.904;2022-10-31T15:05:05;42.38;;;27.92;;
57067;SDS011;43391;47.448;18.904;2022-10-31T15:07:33;49.38;;;29.58;;
57067;SDS011;43391;47.448;18.904;2022-10-31T15:10:03;39.15;;;26.65;;
57067;SDS011;43391;47.448;18.904;2022-10-31T15:14:57;45.75;;;28.38;;
57067;SDS011;43391;47.448;18.904;2022-10-31T15:17:35;49.15;;;30.33;;
57067;SDS011;43391;47.448;18.904;2022-10-31T15:20:00;46.60;;;30.40;;
57067;SDS011;43391;47.448;18.904;2022-10-31T15:22:26;49.92;;;31.08;;
57067;SDS011;43391;47.448;18.904;2022-10-31T15:24:54;51.65;;;32.38;;
57067;SDS011;43391;47.448;18.904;2022-10-31T15:27:21;57.60;;;32.35;;
57067;SDS011;43391;47.448;18.904;2022-10-31T15:29:49;49.58;;;33.08;;
57067;SDS011;43391;47.448;18.904;2022-10-31T15:32:25;49.13;;;31.77;;
57067;SDS011;43391;47.448;18.904;2022-10-31T15:34:53;50.33;;;30.50;;
57067;SDS011;43391;47.448;18.904;2022-10-31T15:37:21;48.08;;;29.48;;
57067;SDS011;43391;47.448;18.904;2022-10-31T15:39:48;46.78;;;28.05;;
57067;SDS011;43391;47.448;18.904;2022-10-31T15:42:18;63.88;;;43.15;;
57067;SDS011;43391;47.448;18.904;2022-10-31T15:47:38;51.08;;;33.13;;
57067;SDS011;43391;47.448;18.904;2022-10-31T15:50:20;47.20;;;31.10;;
57067;SDS011;43391;47.448;18.904;2022-10-31T15:52:50;48.33;;;30.23;;
57067;SDS011;43391;47.448;18.904;2022-10-31T15:55:19;43.72;;;27.40;;
57067;SDS011;43391;47.448;18.904;2022-10-31T15:57:51;42.90;;;27.73;;
57067;SDS011;43391;47.448;18.904;2022-10-31T16:02:46;43.58;;;29.00;;
57067;SDS011;43391;47.448;18.904;2022-10-31T16:05:16;49.35;;;28.23;;
57067;SDS011;43391;47.448;18.904;2022-10-31T16:07:49;46.10;;;28.48;;
57067;SDS011;43391;47.448;18.904;2022-10-31T16:10:23;54.63;;;33.35;;
57067;SDS011;43391;47.448;18.904;2022-10-31T16:12:50;49.72;;;31.17;;
57067;SDS011;43391;47.448;18.904;2022-10-31T16:15:17;57.15;;;32.28;;
57067;SDS011;43391;47.448;18.904;2022-10-31T16:17:46;56.53;;;31.30;;
57067;SDS011;43391;47.448;18.904;2022-10-31T16:20:21;54.83;;;32.45;;
57067;SDS011;43391;47.448;18.904;2022-10-31T16:22:51;49.15;;;30.40;;
57067;SDS011;43391;47.448;18.904;2022-10-31T16:25:34;51.50;;;31.83;;
57067;SDS011;43391;47.448;18.904;2022-10-31T16:28:03;52.25;;;34.20;;
57067;SDS011;43391;47.448;18.904;2022-10-31T16:30:44;46.83;;;30.92;;
57067;SDS011;43391;47.448;18.904;2022-10-31T16:35:47;49.22;;;30.20;;
57067;SDS011;43391;47.448;18.904;2022-10-31T16:38:13;52.03;;;33.28;;
57067;SDS011;43391;47.448;18.904;2022-10-31T16:40:38;54.33;;;32.42;;
57067;SDS011;43391;47.448;18.904;2022-10-31T16:43:04;54.10;;;31.35;;
57067;SDS011;43391;47.448;18.904;2022-10-31T16:45:31;50.42;;;30.48;;
57067;SDS011;43391;47.448;18.904;2022-10-31T16:48:05;49.50;;;31.03;;
57067;SDS011;43391;47.448;18.904;2022-10-31T16:50:31;47.80;;;29.85;;
57067;SDS011;43391;47.448;18.904;2022-10-31T16:52:57;47.60;;;30.67;;